Time;durP1;ratioP1;P1;durP2;ratioP2;P2;SDS_P1;SDS_P2;PMS_P1;PMS_P2;Temp;Humidity;BMP_temperature;BMP_pressure;BME280_temperature;BME280_humidity;BME280_pressure;Samples;Min_cycle;Max_cycle;Signal;HPM_P1;HPM_P2
2024/03/22 00:01:12;;;;;;;39.80;22.48;;;;;;;;;;6183756;23;20020;-74
2024/03/22 00:03:37;;;;;;;46.42;24.08;;;;;;;;;;6214260;23;20459;-75
2024/03/22 00:06:03;;;;;;;44.42;23.23;;;;;;;;;;6207941;23;20086;-74
2024/03/22 00:08:28;;;;;;;47.17;24.05;;;;;;;;;;6211676;23;20020;-74
2024/03/22 00:10:53;;;;;;;50.72;26.88;;;;;;;;;;6204939;23;20081;-74
2024/03/22 00:13:19;;;;;;;51.78;26.65;;;;;;;;;;6208013;23;20393;-73
2024/03/22 00:15:45;;;;;;;43.78;24.52;;;;;;;;;;6184917;23;20032;-75
2024/03/22 00:18:10;;;;;;;44.72;23.38;;;;;;;;;;6208405;23;20024;-74
2024/03/22 00:20:36;;;;;;;51.70;24.27;;;;;;;;;;6187490;23;20050;-74
2024/03/22 00:23:02;;;;;;;45.30;23.08;;;;;;;;;;6207652;23;20078;-74
2024/03/22 00:25:27;;;;;;;45.75;24.17;;;;;;;;;;6211722;23;20028;-74
2024/03/22 00:27:53;;;;;;;44.47;23.02;;;;;;;;;;6206647;23;20085;-74
2024/03/22 00:30:19;;;;;;;47.83;24.70;;;;;;;;;;6205872;23;20463;-74
2024/03/22 00:32:44;;;;;;;45.15;23.02;;;;;;;;;;6210567;23;20027;-74
2024/03/22 00:35:10;;;;;;;45.92;24.23;;;;;;;;;;6179812;23;20032;-74
2024/03/22 00:37:35;;;;;;;47.90;24.83;;;;;;;;;;6211003;23;20024;-74
2024/03/22 00:40:01;;;;;;;48.22;23.58;;;;;;;;;;6175198;23;20020;-75
2024/03/22 00:42:26;;;;;;;46.60;23.00;;;;;;;;;;6176887;23;20440;-75
2024/03/22 00:44:52;;;;;;;48.20;24.83;;;;;;;;;;6183468;23;20035;-74
2024/03/22 00:47:17;;;;;;;48.72;24.75;;;;;;;;;;6201347;23;20102;-75
2024/03/22 00:49:42;;;;;;;42.83;24.23;;;;;;;;;;6182837;23;20099;-74
2024/03/22 00:52:08;;;;;;;46.88;24.20;;;;;;;;;;6176692;23;20024;-75
2024/03/22 00:54:33;;;;;;;47.25;25.15;;;;;;;;;;6181033;23;20118;-74
2024/03/22 00:56:59;;;;;;;48.88;24.45;;;;;;;;;;6203813;23;20028;-73
2024/03/22 00:59:24;;;;;;;50.58;25.63;;;;;;;;;;6201421;23;20074;-76
2024/03/22 01:01:49;;;;;;;46.95;24.75;;;;;;;;;;6208246;23;20024;-74
2024/03/22 01:04:15;;;;;;;52.55;26.55;;;;;;;;;;6201147;23;20090;-75
2024/03/22 01:06:40;;;;;;;51.58;27.17;;;;;;;;;;6183481;23;20031;-74
2024/03/22 01:09:07;;;;;;;49.30;25.73;;;;;;;;;;6202681;23;20028;-74
2024/03/22 01:11:32;;;;;;;45.88;24.45;;;;;;;;;;6198954;23;20016;-74
2024/03/22 01:13:58;;;;;;;47.47;24.10;;;;;;;;;;6208205;23;20028;-74
2024/03/22 01:16:23;;;;;;;53.40;26.25;;;;;;;;;;6176444;23;20091;-73
2024/03/22 01:18:49;;;;;;;52.08;26.73;;;;;;;;;;6207961;23;20024;-73
2024/03/22 01:21:14;;;;;;;52.03;28.00;;;;;;;;;;6209639;23;20665;-74
2024/03/22 01:23:39;;;;;;;54.05;28.13;;;;;;;;;;6196786;23;20107;-74
2024/03/22 01:26:05;;;;;;;50.22;24.58;;;;;;;;;;6204464;23;20403;-73
2024/03/22 01:28:30;;;;;;;50.88;27.33;;;;;;;;;;6198453;23;20024;-74
2024/03/22 01:30:56;;;;;;;51.13;26.05;;;;;;;;;;6206535;23;20028;-74
2024/03/22 01:33:21;;;;;;;47.85;25.77;;;;;;;;;;6206511;23;20024;-74
2024/03/22 01:35:46;;;;;;;44.58;23.92;;;;;;;;;;6203155;23;20024;-75
2024/03/22 01:38:12;;;;;;;48.65;23.73;;;;;;;;;;6179683;23;20020;-75
2024/03/22 01:40:37;;;;;;;50.78;24.75;;;;;;;;;;6196673;23;20024;-74
2024/03/22 01:43:03;;;;;;;50.67;25.73;;;;;;;;;;6207893;23;20103;-74
2024/03/22 01:45:31;;;;;;;57.00;27.23;;;;;;;;;;6199924;23;20020;-73
2024/03/22 01:47:57;;;;;;;55.50;27.27;;;;;;;;;;6207348;23;20094;-73
2024/03/22 01:50:23;;;;;;;58.13;27.30;;;;;;;;;;6208666;23;20082;-74
2024/03/22 01:52:48;;;;;;;52.47;26.52;;;;;;;;;;6197454;23;20718;-73
2024/03/22 01:55:14;;;;;;;57.30;28.00;;;;;;;;;;6209850;23;20107;-73
2024/03/22 01:57:39;;;;;;;54.92;27.92;;;;;;;;;;6202689;23;20020;-73
2024/03/22 02:00:06;;;;;;;54.08;26.35;;;;;;;;;;6212137;23;20029;-73
2024/03/22 02:02:31;;;;;;;51.33;25.88;;;;;;;;;;6210812;23;20662;-73
2024/03/22 02:04:56;;;;;;;48.83;24.77;;;;;;;;;;6201219;23;20028;-75
2024/03/22 02:07:22;;;;;;;46.58;26.02;;;;;;;;;;6204000;23;20150;-73
2024/03/22 02:09:48;;;;;;;48.28;25.38;;;;;;;;;;6178433;23;20024;-73
2024/03/22 02:12:13;;;;;;;52.35;26.63;;;;;;;;;;6211183;23;20042;-73
2024/03/22 02:14:39;;;;;;;51.35;28.13;;;;;;;;;;6209338;23;20381;-73
2024/03/22 02:17:04;;;;;;;48.88;26.33;;;;;;;;;;6204287;23;20084;-73
2024/03/22 02:19:30;;;;;;;47.53;26.00;;;;;;;;;;6206734;23;20079;-74
2024/03/22 02:21:55;;;;;;;48.80;27.63;;;;;;;;;;6174148;23;20065;-74
2024/03/22 02:24:20;;;;;;;51.42;26.58;;;;;;;;;;6210613;23;20359;-74
2024/03/22 02:26:46;;;;;;;53.55;27.67;;;;;;;;;;6204151;23;20024;-73
2024/03/22 02:29:11;;;;;;;50.03;27.50;;;;;;;;;;6209873;23;20060;-73
2024/03/22 02:31:37;;;;;;;49.20;25.88;;;;;;;;;;6209109;23;20028;-74
2024/03/22 02:34:02;;;;;;;51.85;27.85;;;;;;;;;;6199411;23;20028;-73
2024/03/22 02:36:28;;;;;;;46.65;25.88;;;;;;;;;;6208100;23;20028;-73
2024/03/22 02:38:54;;;;;;;50.97;28.67;;;;;;;;;;6205284;23;20028;-74
2024/03/22 02:41:19;;;;;;;48.45;26.17;;;;;;;;;;6212208;23;20154;-73
2024/03/22 02:43:45;;;;;;;49.95;27.50;;;;;;;;;;6212235;23;20028;-73
2024/03/22 02:46:10;;;;;;;53.63;29.02;;;;;;;;;;6207971;23;20128;-74
2024/03/22 02:48:36;;;;;;;46.78;27.05;;;;;;;;;;6209396;23;20513;-74
2024/03/22 02:51:01;;;;;;;45.60;25.70;;;;;;;;;;6181965;23;20035;-74
2024/03/22 02:53:26;;;;;;;50.15;27.60;;;;;;;;;;6214096;23;20024;-74
2024/03/22 02:55:52;;;;;;;48.53;26.30;;;;;;;;;;6211608;23;20098;-74
2024/03/22 02:58:20;;;;;;;48.30;25.65;;;;;;;;;;6184506;23;20020;-74
2024/03/22 03:00:45;;;;;;;51.90;27.40;;;;;;;;;;6206877;23;20028;-74
2024/03/22 03:03:10;;;;;;;48.28;27.13;;;;;;;;;;6204460;23;20027;-74
2024/03/22 03:05:36;;;;;;;46.95;26.27;;;;;;;;;;6186778;23;20072;-73
2024/03/22 03:08:03;;;;;;;43.33;24.83;;;;;;;;;;6207042;23;20020;-74
2024/03/22 03:10:29;;;;;;;45.97;26.65;;;;;;;;;;6212568;23;20447;-74
2024/03/22 03:12:54;;;;;;;48.28;28.02;;;;;;;;;;6187624;23;20066;-74
2024/03/22 03:15:20;;;;;;;46.65;27.65;;;;;;;;;;6182460;23;20100;-74
2024/03/22 03:17:45;;;;;;;46.30;27.83;;;;;;;;;;6185744;23;20135;-74
2024/03/22 03:20:13;;;;;;;49.03;26.45;;;;;;;;;;6210838;23;20413;-74
2024/03/22 03:22:41;;;;;;;49.45;27.88;;;;;;;;;;6213647;23;20028;-74
2024/03/22 03:25:07;;;;;;;;;;;;;;;;;;6213832;23;20020;-74
2024/03/22 03:27:32;;;;;;;47.92;25.77;;;;;;;;;;6207876;23;20342;-74
2024/03/22 03:29:58;;;;;;;43.90;25.13;;;;;;;;;;6209369;23;20576;-74
2024/03/22 03:32:24;;;;;;;45.65;26.20;;;;;;;;;;6206276;23;20443;-74
2024/03/22 03:34:50;;;;;;;53.80;27.48;;;;;;;;;;6188463;23;20625;-74
2024/03/22 03:37:15;;;;;;;46.33;26.35;;;;;;;;;;6214509;23;20099;-74
2024/03/22 03:39:41;;;;;;;49.42;26.60;;;;;;;;;;6185306;23;20024;-74
2024/03/22 03:42:06;;;;;;;47.50;27.08;;;;;;;;;;6187944;23;20024;-74
2024/03/22 03:44:32;;;;;;;49.65;25.85;;;;;;;;;;6205867;23;20081;-74
2024/03/22 03:46:57;;;;;;;46.33;26.95;;;;;;;;;;6211234;23;20044;-74
2024/03/22 03:49:23;;;;;;;51.67;28.05;;;;;;;;;;6209839;23;20316;-74
2024/03/22 03:51:48;;;;;;;43.33;26.60;;;;;;;;;;6187842;23;20028;-74
2024/03/22 03:54:13;;;;;;;44.10;25.88;;;;;;;;;;6214075;23;20054;-74
2024/03/22 03:56:39;;;;;;;51.42;28.55;;;;;;;;;;6182521;23;20021;-74
2024/03/22 03:59:04;;;;;;;46.42;26.10;;;;;;;;;;6184573;23;20020;-74
2024/03/22 04:01:30;;;;;;;45.75;26.85;;;;;;;;;;6180740;23;20020;-74
2024/03/22 04:03:55;;;;;;;49.20;26.58;;;;;;;;;;6212311;23;20179;-74
2024/03/22 04:06:20;;;;;;;41.83;24.55;;;;;;;;;;6212033;23;20100;-74
2024/03/22 04:08:46;;;;;;;53.47;27.23;;;;;;;;;;6204768;23;20031;-74
2024/03/22 04:11:11;;;;;;;45.75;29.52;;;;;;;;;;6209948;23;20024;-74
2024/03/22 04:13:37;;;;;;;46.13;28.55;;;;;;;;;;6201822;23;20054;-74
2024/03/22 04:16:02;;;;;;;46.72;26.35;;;;;;;;;;6210997;23;20418;-74
2024/03/22 04:18:28;;;;;;;48.33;26.10;;;;;;;;;;6203464;23;20024;-74
2024/03/22 04:20:57;;;;;;;44.72;24.38;;;;;;;;;;6209825;23;20027;-74
2024/03/22 04:23:23;;;;;;;49.42;25.48;;;;;;;;;;6206176;23;20024;-74
2024/03/22 04:25:55;;;;;;;45.20;26.25;;;;;;;;;;6199143;23;20099;-74
2024/03/22 04:28:21;;;;;;;44.53;25.35;;;;;;;;;;6210811;23;20020;-74
2024/03/22 04:30:56;;;;;;;37.40;22.50;;;;;;;;;;6203410;23;20764;-74
2024/03/22 04:33:21;;;;;;;44.13;25.52;;;;;;;;;;6210193;23;20517;-73
2024/03/22 04:35:47;;;;;;;44.30;25.00;;;;;;;;;;6208950;23;20016;-73
2024/03/22 04:38:12;;;;;;;42.35;23.20;;;;;;;;;;6197336;23;20059;-74
2024/03/22 04:40:37;;;;;;;40.78;23.40;;;;;;;;;;6206249;23;20679;-73
2024/03/22 04:43:03;;;;;;;37.78;22.25;;;;;;;;;;6202120;23;20024;-74
2024/03/22 04:45:28;;;;;;;36.28;22.17;;;;;;;;;;6184768;23;20024;-73
2024/03/22 04:47:54;;;;;;;40.13;23.30;;;;;;;;;;6203535;23;20024;-74
2024/03/22 04:50:19;;;;;;;37.45;21.70;;;;;;;;;;6206043;23;20555;-73
2024/03/22 04:52:45;;;;;;;37.75;22.13;;;;;;;;;;6204099;23;20725;-73
2024/03/22 04:55:10;;;;;;;35.80;21.02;;;;;;;;;;6202263;23;20024;-74
2024/03/22 04:57:35;;;;;;;36.38;20.85;;;;;;;;;;6209702;23;20027;-74
2024/03/22 05:00:01;;;;;;;38.05;20.83;;;;;;;;;;6202427;23;20104;-74
2024/03/22 05:02:26;;;;;;;37.25;20.50;;;;;;;;;;6209118;23;20090;-74
2024/03/22 05:04:52;;;;;;;36.63;20.45;;;;;;;;;;6206342;23;20024;-74
2024/03/22 05:07:17;;;;;;;36.10;20.95;;;;;;;;;;6198637;23;20024;-73
2024/03/22 05:09:43;;;;;;;37.30;20.20;;;;;;;;;;6208472;23;20027;-74
2024/03/22 05:12:08;;;;;;;35.17;20.33;;;;;;;;;;6176922;23;20351;-74
2024/03/22 05:14:33;;;;;;;32.47;20.33;;;;;;;;;;6209049;23;20475;-74
2024/03/22 05:16:59;;;;;;;35.10;20.20;;;;;;;;;;6208281;23;20074;-74
2024/03/22 05:19:24;;;;;;;33.50;20.27;;;;;;;;;;6200998;23;20067;-73
2024/03/22 05:21:50;;;;;;;37.22;21.10;;;;;;;;;;6205807;23;20028;-74
2024/03/22 05:24:15;;;;;;;35.97;21.50;;;;;;;;;;6178346;23;20028;-75
2024/03/22 05:26:40;;;;;;;32.63;19.80;;;;;;;;;;6211846;23;20024;-74
2024/03/22 05:29:06;;;;;;;35.08;21.00;;;;;;;;;;6205345;23;20024;-74
2024/03/22 05:31:31;;;;;;;33.88;19.95;;;;;;;;;;6211409;23;20016;-74
2024/03/22 05:33:57;;;;;;;32.65;18.77;;;;;;;;;;6206557;23;20094;-74
2024/03/22 05:36:22;;;;;;;29.55;18.20;;;;;;;;;;6199961;23;20020;-74
2024/03/22 05:38:47;;;;;;;30.30;18.45;;;;;;;;;;6211791;23;20366;-74
2024/03/22 05:41:13;;;;;;;29.42;17.35;;;;;;;;;;6203908;23;20024;-74
2024/03/22 05:43:38;;;;;;;30.08;17.45;;;;;;;;;;6211369;23;20666;-74
2024/03/22 05:46:04;;;;;;;33.63;16.65;;;;;;;;;;6211948;23;20099;-74
2024/03/22 05:48:29;;;;;;;30.13;18.45;;;;;;;;;;6175805;23;20079;-74
2024/03/22 05:50:55;;;;;;;28.85;16.75;;;;;;;;;;6182109;23;20485;-75
2024/03/22 05:53:20;;;;;;;28.63;17.00;;;;;;;;;;6205696;23;20028;-74
2024/03/22 05:55:45;;;;;;;29.52;16.70;;;;;;;;;;6186287;23;20024;-74
2024/03/22 05:58:11;;;;;;;26.90;16.65;;;;;;;;;;6210125;23;20020;-74
2024/03/22 06:00:36;;;;;;;30.20;16.42;;;;;;;;;;6178920;23;20020;-73
2024/03/22 06:03:02;;;;;;;31.33;17.73;;;;;;;;;;6204814;23;20083;-75
2024/03/22 06:05:27;;;;;;;30.17;17.70;;;;;;;;;;6201554;23;20047;-74
2024/03/22 06:07:53;;;;;;;27.25;16.33;;;;;;;;;;6211092;23;20020;-74
2024/03/22 06:10:19;;;;;;;33.03;19.27;;;;;;;;;;6203656;23;20016;-74
2024/03/22 06:12:46;;;;;;;29.13;16.65;;;;;;;;;;6210825;23;20961;-75
2024/03/22 06:15:12;;;;;;;29.55;17.85;;;;;;;;;;6210864;23;20078;-74
2024/03/22 06:17:37;;;;;;;29.75;16.63;;;;;;;;;;6197214;23;20024;-74
2024/03/22 06:20:04;;;;;;;28.33;16.98;;;;;;;;;;6209620;23;20094;-74
2024/03/22 06:22:29;;;;;;;29.45;16.00;;;;;;;;;;6205063;23;20090;-74
2024/03/22 06:24:55;;;;;;;27.60;17.27;;;;;;;;;;6209833;23;20615;-74
2024/03/22 06:27:20;;;;;;;30.48;17.55;;;;;;;;;;6211706;23;20647;-75
2024/03/22 06:29:46;;;;;;;28.95;16.25;;;;;;;;;;6201458;23;20743;-74
2024/03/22 06:32:11;;;;;;;29.95;17.65;;;;;;;;;;6203865;23;20043;-75
2024/03/22 06:34:38;;;;;;;29.95;16.75;;;;;;;;;;6203209;23;20055;-74
2024/03/22 06:37:03;;;;;;;30.75;16.70;;;;;;;;;;6209858;23;20035;-75
2024/03/22 06:39:29;;;;;;;29.13;16.58;;;;;;;;;;6210174;23;20051;-74
2024/03/22 06:41:54;;;;;;;28.30;16.85;;;;;;;;;;6204211;23;20474;-74
2024/03/22 06:44:20;;;;;;;25.20;15.88;;;;;;;;;;6179892;23;20027;-74
2024/03/22 06:46:45;;;;;;;27.67;16.40;;;;;;;;;;6202282;23;20020;-74
2024/03/22 06:49:10;;;;;;;28.40;16.23;;;;;;;;;;6211080;23;20585;-74
2024/03/22 06:51:36;;;;;;;24.90;14.98;;;;;;;;;;6210578;23;20020;-74
2024/03/22 06:54:02;;;;;;;25.48;15.38;;;;;;;;;;6205123;23;20024;-74
2024/03/22 06:56:27;;;;;;;23.15;13.43;;;;;;;;;;6209851;23;20066;-74
2024/03/22 06:58:53;;;;;;;27.80;16.25;;;;;;;;;;6197588;23;20020;-74
2024/03/22 07:01:20;;;;;;;24.73;15.60;;;;;;;;;;6209236;23;20539;-75
2024/03/22 07:03:46;;;;;;;24.40;14.90;;;;;;;;;;6203614;23;20028;-74
2024/03/22 07:06:12;;;;;;;26.63;16.40;;;;;;;;;;6210370;23;20058;-74
2024/03/22 07:08:37;;;;;;;28.35;16.35;;;;;;;;;;6208824;23;20082;-75
2024/03/22 07:11:08;;;;;;;28.10;15.48;;;;;;;;;;6200107;23;20101;-74
2024/03/22 07:13:34;;;;;;;23.13;15.52;;;;;;;;;;6205340;23;20028;-74
2024/03/22 07:16:00;;;;;;;25.88;15.27;;;;;;;;;;6203284;23;20043;-74
2024/03/22 07:18:26;;;;;;;29.85;18.20;;;;;;;;;;6210949;23;20100;-74
2024/03/22 07:20:51;;;;;;;23.52;15.30;;;;;;;;;;6186248;23;20028;-74
2024/03/22 07:23:17;;;;;;;24.33;14.35;;;;;;;;;;6203983;23;20024;-75
2024/03/22 07:25:45;;;;;;;29.35;15.75;;;;;;;;;;6206198;23;20567;-74
2024/03/22 07:28:11;;;;;;;27.20;15.13;;;;;;;;;;6174000;23;20037;-74
2024/03/22 07:30:36;;;;;;;25.38;14.60;;;;;;;;;;6185548;23;20083;-74
2024/03/22 07:33:02;;;;;;;29.00;16.85;;;;;;;;;;6185158;23;20058;-74
2024/03/22 07:35:28;;;;;;;23.52;14.73;;;;;;;;;;6202881;23;20024;-74
2024/03/22 07:37:53;;;;;;;25.02;15.05;;;;;;;;;;6209191;23;20024;-74
2024/03/22 07:40:20;;;;;;;27.60;16.85;;;;;;;;;;6199199;23;20016;-74
2024/03/22 07:42:45;;;;;;;26.73;15.82;;;;;;;;;;6205710;23;20020;-74
2024/03/22 07:45:10;;;;;;;27.02;15.57;;;;;;;;;;6204052;23;20516;-74
2024/03/22 07:47:37;;;;;;;27.42;16.02;;;;;;;;;;6209354;23;20442;-74
2024/03/22 07:50:03;;;;;;;27.30;16.88;;;;;;;;;;6186049;23;20028;-74
2024/03/22 07:52:28;;;;;;;28.75;17.35;;;;;;;;;;6203445;23;20103;-74
2024/03/22 07:54:53;;;;;;;25.48;15.75;;;;;;;;;;6205882;23;20016;-74
2024/03/22 07:57:20;;;;;;;24.90;15.02;;;;;;;;;;6200090;23;20031;-74
2024/03/22 07:59:45;;;;;;;31.17;16.63;;;;;;;;;;6210183;23;20508;-74
2024/03/22 08:02:11;;;;;;;27.50;16.30;;;;;;;;;;6210346;23;20032;-74
2024/03/22 08:04:36;;;;;;;30.85;18.10;;;;;;;;;;6178568;23;20086;-74
2024/03/22 08:07:02;;;;;;;29.55;17.25;;;;;;;;;;6208708;23;20034;-74
2024/03/22 08:09:27;;;;;;;28.10;16.00;;;;;;;;;;6197379;23;20032;-74
2024/03/22 08:11:52;;;;;;;28.20;17.40;;;;;;;;;;6206962;23;20027;-74
2024/03/22 08:14:18;;;;;;;29.70;17.40;;;;;;;;;;6210425;23;20020;-74
2024/03/22 08:16:43;;;;;;;29.42;16.08;;;;;;;;;;6202964;23;20020;-74
2024/03/22 08:19:09;;;;;;;29.65;16.83;;;;;;;;;;6210358;23;20091;-74
2024/03/22 08:21:34;;;;;;;28.95;16.65;;;;;;;;;;6202631;23;20023;-74
2024/03/22 08:24:00;;;;;;;31.23;17.10;;;;;;;;;;6204435;23;20127;-74
2024/03/22 08:26:25;;;;;;;29.45;17.00;;;;;;;;;;6204821;23;20031;-74
2024/03/22 08:28:50;;;;;;;32.92;18.02;;;;;;;;;;6205647;23;20086;-74
2024/03/22 08:31:17;;;;;;;33.35;18.25;;;;;;;;;;6209427;23;20024;-74
2024/03/22 08:33:42;;;;;;;29.63;19.80;;;;;;;;;;6203301;23;20020;-74
2024/03/22 08:36:07;;;;;;;30.15;19.15;;;;;;;;;;6205749;23;20718;-74
2024/03/22 08:38:33;;;;;;;31.20;18.45;;;;;;;;;;6197228;23;20024;-74
2024/03/22 08:40:59;;;;;;;32.50;18.63;;;;;;;;;;6207431;23;20028;-74
2024/03/22 08:43:27;;;;;;;29.45;17.83;;;;;;;;;;6210724;23;20020;-73
2024/03/22 08:45:53;;;;;;;33.45;18.50;;;;;;;;;;6201827;23;20031;-77
2024/03/22 08:48:18;;;;;;;36.22;21.45;;;;;;;;;;6210954;23;20386;-74
2024/03/22 08:50:44;;;;;;;38.28;21.48;;;;;;;;;;6208884;23;20251;-72
2024/03/22 08:53:09;;;;;;;38.90;23.23;;;;;;;;;;6209093;23;20027;-75
2024/03/22 08:55:35;;;;;;;37.58;24.95;;;;;;;;;;6212136;23;20020;-74
2024/03/22 08:58:02;;;;;;;38.30;22.80;;;;;;;;;;6186797;23;20023;-74
2024/03/22 09:00:28;;;;;;;43.00;25.23;;;;;;;;;;6187704;23;20470;-75
2024/03/22 09:02:53;;;;;;;36.85;20.83;;;;;;;;;;6209142;23;20073;-75
2024/03/22 09:05:19;;;;;;;34.80;20.70;;;;;;;;;;6188819;23;20020;-73
2024/03/22 09:07:44;;;;;;;33.38;20.17;;;;;;;;;;6216104;23;20055;-74
2024/03/22 09:10:10;;;;;;;35.78;20.98;;;;;;;;;;6188552;23;20482;-74
2024/03/22 09:12:36;;;;;;;42.63;23.55;;;;;;;;;;6214323;23;20027;-74
2024/03/22 09:15:02;;;;;;;35.90;21.20;;;;;;;;;;6208472;23;20016;-74
2024/03/22 09:17:27;;;;;;;41.42;23.50;;;;;;;;;;6211320;23;20024;-74
2024/03/22 09:19:53;;;;;;;39.67;21.30;;;;;;;;;;6212997;23;20449;-74
2024/03/22 09:22:18;;;;;;;34.30;19.70;;;;;;;;;;6188208;23;20532;-74
2024/03/22 09:24:43;;;;;;;37.85;22.13;;;;;;;;;;6189816;23;20451;-75
2024/03/22 09:27:10;;;;;;;39.10;22.85;;;;;;;;;;6186324;23;20020;-75
2024/03/22 09:29:39;;;;;;;35.75;21.02;;;;;;;;;;6210869;23;20027;-75
2024/03/22 09:32:05;;;;;;;37.25;20.60;;;;;;;;;;6185471;23;20020;-74
2024/03/22 09:34:32;;;;;;;37.60;22.25;;;;;;;;;;6159314;23;20028;-75
2024/03/22 09:36:58;;;;;;;38.67;20.92;;;;;;;;;;6181414;23;20020;-73
2024/03/22 09:39:23;;;;;;;40.17;24.77;;;;;;;;;;6154737;23;20071;-74
2024/03/22 09:41:50;;;;;;;35.97;21.52;;;;;;;;;;6159615;23;20021;-71
2024/03/22 09:44:19;;;;;;;37.60;21.60;;;;;;;;;;6181876;23;20091;-74
2024/03/22 09:46:46;;;;;;;46.42;22.23;;;;;;;;;;6181429;23;20471;-75
2024/03/22 09:49:12;;;;;;;34.95;21.15;;;;;;;;;;6159563;23;20731;-74
2024/03/22 09:51:39;;;;;;;41.13;23.13;;;;;;;;;;6160361;23;20024;-75
2024/03/22 09:54:05;;;;;;;36.72;21.77;;;;;;;;;;6186185;23;20017;-74
2024/03/22 09:56:31;;;;;;;36.00;20.20;;;;;;;;;;6184893;23;20043;-74
2024/03/22 09:58:57;;;;;;;38.95;20.55;;;;;;;;;;6156664;23;20035;-78
2024/03/22 10:01:24;;;;;;;32.75;20.25;;;;;;;;;;6169868;23;20013;-77
2024/03/22 10:03:51;;;;;;;38.67;20.80;;;;;;;;;;6179757;23;20032;-78
2024/03/22 10:06:16;;;;;;;34.42;20.48;;;;;;;;;;6178618;23;20032;-76
2024/03/22 10:08:42;;;;;;;34.67;20.15;;;;;;;;;;6172352;23;20039;-78
2024/03/22 10:11:07;;;;;;;29.60;19.02;;;;;;;;;;6181065;23;20454;-78
2024/03/22 10:13:33;;;;;;;31.67;19.25;;;;;;;;;;6170596;23;20030;-76
2024/03/22 10:15:58;;;;;;;29.48;18.40;;;;;;;;;;6178301;23;20025;-78
2024/03/22 10:18:23;;;;;;;39.90;19.55;;;;;;;;;;6175227;23;20359;-77
2024/03/22 10:20:58;;;;;;;31.90;17.98;;;;;;;;;;6156345;23;20447;-77
2024/03/22 10:23:25;;;;;;;31.20;18.65;;;;;;;;;;6158083;23;20024;-78
2024/03/22 10:25:51;;;;;;;29.08;17.00;;;;;;;;;;6175729;23;20025;-77
2024/03/22 10:28:16;;;;;;;29.60;18.60;;;;;;;;;;6178455;23;20044;-79
2024/03/22 10:30:43;;;;;;;34.42;20.15;;;;;;;;;;6146961;23;20545;-79
2024/03/22 10:33:09;;;;;;;31.15;18.98;;;;;;;;;;6182004;23;20027;-78
2024/03/22 10:35:34;;;;;;;29.40;17.35;;;;;;;;;;6181654;23;20035;-77
2024/03/22 10:38:00;;;;;;;32.05;17.67;;;;;;;;;;6173639;23;20025;-79
2024/03/22 10:40:27;;;;;;;30.10;18.75;;;;;;;;;;6181151;23;20024;-76
2024/03/22 10:42:53;;;;;;;29.35;18.45;;;;;;;;;;6169681;23;20020;-78
2024/03/22 10:45:22;;;;;;;30.50;18.10;;;;;;;;;;6152950;23;20198;-77
2024/03/22 10:47:48;;;;;;;33.20;19.90;;;;;;;;;;6175199;23;20024;-76
2024/03/22 10:50:14;;;;;;;32.97;19.02;;;;;;;;;;6180438;23;20032;-77
2024/03/22 10:52:46;;;;;;;31.55;18.42;;;;;;;;;;6180698;23;20025;-77
2024/03/22 10:55:15;;;;;;;32.20;17.40;;;;;;;;;;6176086;23;20550;-76
2024/03/22 10:57:40;;;;;;;33.20;18.85;;;;;;;;;;6175705;23;20021;-76
2024/03/22 11:00:12;;;;;;;37.25;20.63;;;;;;;;;;6148725;23;20087;-77
2024/03/22 11:02:37;;;;;;;32.28;18.73;;;;;;;;;;6181200;23;20020;-76
2024/03/22 11:05:04;;;;;;;34.30;19.15;;;;;;;;;;6182643;23;20347;-78
2024/03/22 11:07:30;;;;;;;34.13;19.58;;;;;;;;;;6174771;23;20009;-76
2024/03/22 11:10:01;;;;;;;32.33;20.58;;;;;;;;;;6161453;23;20021;-74
2024/03/22 11:12:27;;;;;;;33.55;19.67;;;;;;;;;;6159851;23;20055;-74
2024/03/22 11:14:54;;;;;;;31.65;19.33;;;;;;;;;;6187227;23;20039;-74
2024/03/22 11:17:24;;;;;;;34.78;19.08;;;;;;;;;;6163211;23;20023;-73
2024/03/22 11:19:51;;;;;;;36.80;20.90;;;;;;;;;;6162566;23;20024;-73
2024/03/22 11:22:17;;;;;;;34.30;18.50;;;;;;;;;;6187278;23;20031;-74
2024/03/22 11:24:42;;;;;;;29.23;16.65;;;;;;;;;;6182408;23;20051;-73
2024/03/22 11:27:10;;;;;;;22.33;13.88;;;;;;;;;;6185030;23;20537;-74
2024/03/22 11:29:38;;;;;;;24.55;16.08;;;;;;;;;;6158959;23;20075;-74
2024/03/22 11:32:07;;;;;;;25.60;15.82;;;;;;;;;;6188508;23;20020;-74
2024/03/22 11:34:33;;;;;;;24.80;14.57;;;;;;;;;;6164229;23;20027;-73
2024/03/22 11:36:59;;;;;;;24.38;13.55;;;;;;;;;;6186074;23;20075;-72
2024/03/22 11:39:24;;;;;;;20.75;12.85;;;;;;;;;;6161737;23;20059;-73
2024/03/22 11:41:50;;;;;;;22.10;13.23;;;;;;;;;;6158551;23;20502;-73
2024/03/22 11:44:18;;;;;;;22.77;13.48;;;;;;;;;;6187789;23;20025;-73
2024/03/22 11:46:43;;;;;;;20.57;13.90;;;;;;;;;;6158527;23;20027;-73
2024/03/22 11:49:09;;;;;;;23.40;13.55;;;;;;;;;;6185577;23;20475;-73
2024/03/22 11:51:34;;;;;;;21.40;14.10;;;;;;;;;;6183884;23;20032;-74
2024/03/22 11:54:02;;;;;;;19.58;12.50;;;;;;;;;;6154649;23;20032;-72
2024/03/22 11:56:28;;;;;;;19.10;12.80;;;;;;;;;;6186095;23;20016;-72
2024/03/22 11:58:58;;;;;;;18.25;11.82;;;;;;;;;;6159762;23;20021;-73
2024/03/22 12:01:23;;;;;;;19.25;10.98;;;;;;;;;;6162889;23;20024;-73
2024/03/22 12:03:49;;;;;;;18.08;12.00;;;;;;;;;;6162658;23;20027;-73
2024/03/22 12:06:17;;;;;;;17.08;11.23;;;;;;;;;;6158911;23;20028;-74
2024/03/22 12:08:43;;;;;;;;;;;;;;;;;;6185299;23;20024;-73
2024/03/22 12:11:09;;;;;;;16.38;10.90;;;;;;;;;;6158262;23;19920;-74
2024/03/22 12:13:35;;;;;;;18.33;10.57;;;;;;;;;;6187066;23;20489;-73
2024/03/22 12:16:01;;;;;;;13.55;9.88;;;;;;;;;;6162186;23;20024;-70
2024/03/22 12:18:27;;;;;;;13.32;10.10;;;;;;;;;;6157471;23;20028;-72
2024/03/22 12:20:53;;;;;;;12.40;8.90;;;;;;;;;;6159095;23;20392;-72
2024/03/22 12:23:18;;;;;;;10.77;8.65;;;;;;;;;;6156699;23;20075;-71
2024/03/22 12:25:44;;;;;;;12.32;8.68;;;;;;;;;;6187379;23;20020;-74
2024/03/22 12:28:09;;;;;;;11.38;8.88;;;;;;;;;;6162850;23;20020;-73
2024/03/22 12:30:35;;;;;;;15.90;10.57;;;;;;;;;;6184660;23;20024;-74
2024/03/22 12:33:01;;;;;;;13.52;9.95;;;;;;;;;;6162257;23;20016;-74
2024/03/22 12:35:26;;;;;;;13.82;9.38;;;;;;;;;;6183356;23;20020;-73
2024/03/22 12:37:52;;;;;;;14.30;10.43;;;;;;;;;;6186459;23;20029;-73
2024/03/22 12:40:18;;;;;;;17.38;12.52;;;;;;;;;;6160699;23;20062;-73
2024/03/22 12:42:44;;;;;;;12.50;9.10;;;;;;;;;;6162262;23;20020;-73
2024/03/22 12:45:09;;;;;;;12.75;9.10;;;;;;;;;;6162242;23;20017;-70
2024/03/22 12:47:35;;;;;;;12.60;9.73;;;;;;;;;;6157756;23;20017;-73
2024/03/22 12:50:00;;;;;;;12.48;8.65;;;;;;;;;;6159579;23;20627;-72
2024/03/22 12:52:26;;;;;;;11.40;8.20;;;;;;;;;;6180224;23;20021;-71
2024/03/22 12:54:51;;;;;;;10.20;7.88;;;;;;;;;;6160437;23;20035;-72
2024/03/22 12:57:17;;;;;;;9.98;8.38;;;;;;;;;;6161559;23;20020;-72
2024/03/22 12:59:43;;;;;;;12.27;7.88;;;;;;;;;;6183278;23;20024;-72
2024/03/22 13:02:08;;;;;;;9.52;7.18;;;;;;;;;;6161800;23;20020;-73
2024/03/22 13:04:34;;;;;;;8.90;6.70;;;;;;;;;;6179929;23;20100;-72
2024/03/22 13:06:59;;;;;;;9.75;7.32;;;;;;;;;;6161123;23;20087;-72
2024/03/22 13:09:25;;;;;;;12.32;7.20;;;;;;;;;;6186697;23;20741;-73
2024/03/22 13:11:50;;;;;;;7.28;6.00;;;;;;;;;;6136265;23;20051;-72
2024/03/22 13:14:16;;;;;;;8.68;6.68;;;;;;;;;;6161320;23;20028;-72
2024/03/22 13:16:42;;;;;;;7.45;5.68;;;;;;;;;;6179281;23;20106;-71
2024/03/22 13:19:12;;;;;;;7.85;5.47;;;;;;;;;;6182281;23;20472;-70
2024/03/22 13:21:37;;;;;;;8.80;5.20;;;;;;;;;;6157811;23;20043;-73
2024/03/22 13:24:03;;;;;;;8.00;5.63;;;;;;;;;;6159764;23;20020;-71
2024/03/22 13:26:28;;;;;;;8.07;5.45;;;;;;;;;;6160048;23;20064;-71
2024/03/22 13:28:54;;;;;;;9.05;5.68;;;;;;;;;;6155566;23;20031;-73
2024/03/22 13:31:19;;;;;;;9.23;5.63;;;;;;;;;;6181851;23;20031;-72
2024/03/22 13:33:45;;;;;;;8.52;5.40;;;;;;;;;;6179883;23;20750;-71
2024/03/22 13:36:10;;;;;;;7.50;5.05;;;;;;;;;;6160240;23;20344;-71
2024/03/22 13:38:36;;;;;;;6.85;5.38;;;;;;;;;;6160516;23;20367;-71
2024/03/22 13:41:04;;;;;;;8.25;5.30;;;;;;;;;;6155286;23;20431;-70
2024/03/22 13:43:29;;;;;;;6.57;4.72;;;;;;;;;;6184258;23;20444;-72
2024/03/22 13:45:55;;;;;;;6.70;4.45;;;;;;;;;;6181524;23;20031;-71
2024/03/22 13:48:25;;;;;;;6.13;4.05;;;;;;;;;;6187622;23;20074;-72
2024/03/22 13:50:51;;;;;;;5.60;3.50;;;;;;;;;;6161006;23;20083;-72
2024/03/22 13:53:17;;;;;;;5.28;3.92;;;;;;;;;;6187820;23;20017;-73
2024/03/22 13:55:42;;;;;;;7.15;4.03;;;;;;;;;;6162158;23;20032;-73
2024/03/22 13:58:08;;;;;;;5.78;4.20;;;;;;;;;;6158656;23;20021;-72
2024/03/22 14:00:33;;;;;;;6.82;4.07;;;;;;;;;;6163381;23;20048;-73
2024/03/22 14:02:59;;;;;;;5.15;4.13;;;;;;;;;;6186083;23;20021;-73
2024/03/22 14:05:25;;;;;;;7.55;4.05;;;;;;;;;;6165191;23;20024;-73
2024/03/22 14:07:50;;;;;;;4.97;3.92;;;;;;;;;;6189711;23;20020;-73
2024/03/22 14:10:16;;;;;;;7.13;3.28;;;;;;;;;;6186100;23;20107;-73
2024/03/22 14:12:42;;;;;;;6.75;3.92;;;;;;;;;;6163272;23;20028;-72